Time;durP1;ratioP1;P1;durP2;ratioP2;P2;SDS_P1;SDS_P2;PMS_P1;PMS_P2;Temp;Humidity;BMP_temperature;BMP_pressure;BME280_temperature;BME280_humidity;BME280_pressure;Samples;Min_cycle;Max_cycle;Signal;HPM_P1;HPM_P2
2022/01/19 00:01:20;;;;;;;;;29.50;26.00;;;;;5.86;66.81;102334.91;5081292;27;65419;-62
2022/01/19 00:03:45;;;;;;;;;26.00;23.25;;;;;5.88;66.60;102333.97;5081578;27;65899;-60
2022/01/19 00:06:11;;;;;;;;;20.25;18.25;;;;;5.91;66.68;102335.59;5098905;27;46556;-61
2022/01/19 00:08:37;;;;;;;;;14.00;12.25;;;;;5.93;66.45;102336.38;5099208;27;45362;-61
2022/01/19 00:11:02;;;;;;;;;31.25;19.50;;;;;5.96;66.64;102338.03;5098950;27;45302;-63
2022/01/19 00:13:27;;;;;;;;;31.75;25.75;;;;;5.98;66.46;102339.66;5098626;27;45446;-62
2022/01/19 00:15:53;;;;;;;;;30.75;22.25;;;;;6.00;66.27;102331.78;5098149;27;57644;-59
2022/01/19 00:18:20;;;;;;;;;25.25;20.75;;;;;6.01;66.31;102326.50;5078343;27;45311;-61
2022/01/19 00:20:46;;;;;;;;;28.75;23.25;;;;;6.02;66.08;102309.94;5080615;27;45508;-61
2022/01/19 00:23:12;;;;;;;;;30.50;23.50;;;;;6.03;66.01;102296.00;5080196;27;51983;-62
2022/01/19 00:25:38;;;;;;;;;22.75;22.25;;;;;6.03;66.10;102279.50;5081001;27;45201;-62
2022/01/19 00:28:03;;;;;;;;;22.50;20.00;;;;;6.04;65.91;102275.97;5087970;27;53898;-62
2022/01/19 00:30:29;;;;;;;;;32.50;26.50;;;;;6.05;66.07;102268.06;5106570;27;45493;-63
2022/01/19 00:32:54;;;;;;;;;27.75;23.50;;;;;6.07;65.91;102263.63;5080084;27;46326;-62
2022/01/19 00:35:20;;;;;;;;;24.00;20.25;;;;;6.08;66.02;102252.28;5097495;27;67382;-61
2022/01/19 00:37:45;;;;;;;;;25.00;21.75;;;;;6.08;65.96;102252.28;5098236;27;45520;-64
2022/01/19 00:40:14;;;;;;;;;21.75;17.75;;;;;6.08;65.86;102257.50;5097135;27;65922;-63
2022/01/19 00:42:40;;;;;;;;;26.00;19.75;;;;;6.09;65.84;102267.03;5098200;27;46359;-60
2022/01/19 00:45:05;;;;;;;;;29.00;24.75;;;;;6.11;65.62;102276.56;5079670;27;45738;-61
2022/01/19 00:47:31;;;;;;;;;29.00;19.25;;;;;6.12;65.56;102281.69;5106685;27;45261;-60
2022/01/19 00:49:56;;;;;;;;;22.00;21.25;;;;;6.11;65.67;102273.94;5079548;27;45577;-62
2022/01/19 00:52:22;;;;;;;;;18.75;17.00;;;;;6.11;65.58;102272.19;5098447;27;46020;-61
2022/01/19 00:54:47;;;;;;;;;21.75;17.00;;;;;6.12;65.52;102275.66;5105489;27;68964;-62
2022/01/19 00:57:13;;;;;;;;;20.00;17.00;;;;;6.12;65.37;102286.91;5078804;27;64635;-62
2022/01/19 00:59:38;;;;;;;;;23.50;17.75;;;;;6.12;65.49;102280.88;5096733;27;67045;-62
2022/01/19 01:02:03;;;;;;;;;18.00;16.50;;;;;6.13;65.35;102266.91;5078576;27;66543;-62
2022/01/19 01:04:29;;;;;;;;;21.50;17.50;;;;;6.13;65.17;102270.34;5097895;27;48000;-61
2022/01/19 01:06:54;;;;;;;;;19.75;18.50;;;;;6.13;65.51;102257.31;5062721;27;45418;-60
2022/01/19 01:09:20;;;;;;;;;31.75;24.25;;;;;6.15;65.67;102257.25;5097225;27;62819;-61
2022/01/19 01:18:18;;;;;;;;;28.75;21.25;;;;;6.22;65.67;102230.81;5118526;27;45192;-62
2022/01/19 01:20:00;;;;;;;;;21.50;18.50;;;;;6.23;65.58;102224.69;5102964;27;45471;-64
2022/01/19 01:22:25;;;;;;;;;23.00;20.25;;;;;6.26;65.56;102222.84;5067719;27;46477;-62
2022/01/19 01:24:51;;;;;;;;;18.00;16.50;;;;;6.25;65.75;102211.59;5079039;27;45596;-62
2022/01/19 01:27:16;;;;;;;;;17.75;16.25;;;;;6.25;65.52;102211.59;5096618;27;67097;-63
2022/01/19 01:29:41;;;;;;;;;19.50;16.25;;;;;6.25;65.26;102216.81;5100174;27;67828;-62
2022/01/19 01:32:08;;;;;;;;;18.75;16.00;;;;;6.26;65.45;102226.31;5085798;27;74778;-61
2022/01/19 01:34:33;;;;;;;;;18.50;16.50;;;;;6.28;65.23;102234.94;5079119;27;45419;-63
2022/01/19 01:36:58;;;;;;;;;19.50;17.00;;;;;6.28;65.16;102232.34;5096616;27;63845;-61
2022/01/19 01:39:24;;;;;;;;;18.00;16.75;;;;;6.30;65.32;102240.09;5095946;27;64396;-61
2022/01/19 01:41:49;;;;;;;;;22.50;18.50;;;;;6.30;65.29;102250.53;5104570;27;75261;-62
2022/01/19 01:44:15;;;;;;;;;17.00;16.25;;;;;6.29;65.02;102241.00;5097310;27;45371;-61
2022/01/19 01:46:50;;;;;;;;;16.00;16.00;;;;;6.26;65.60;102239.38;5096946;27;56685;-61
2022/01/19 01:49:24;;;;;;;;;16.50;15.50;;;;;6.25;65.35;102240.28;5072982;27;45427;-61
2022/01/19 01:54:33;;;;;;;;;24.25;21.00;;;;;6.22;65.27;102235.19;5067547;27;45249;-63
2022/01/19 01:56:58;;;;;;;;;24.75;23.50;;;;;6.22;65.24;102235.19;5096070;27;67362;-61
2022/01/19 01:59:24;;;;;;;;;24.50;19.25;;;;;6.18;65.38;102238.84;5096866;27;45556;-62
2022/01/19 02:01:49;;;;;;;;;22.50;21.25;;;;;6.16;65.30;102225.03;5096599;27;46067;-61
2022/01/19 02:04:15;;;;;;;;;27.75;20.25;;;;;6.13;65.18;102223.38;5097077;27;45259;-62
2022/01/19 02:09:17;;;;;;;;;27.50;19.50;;;;;6.12;65.34;102216.47;5071908;27;45535;-60
2022/01/19 02:22:55;;;;;;;;;25.75;23.00;;;;;6.03;65.55;102181.16;5082407;27;45895;-60
2022/01/19 02:25:26;;;;;;;;;31.75;25.00;;;;;6.02;65.83;102178.66;5078482;27;45414;-63
2022/01/19 02:44:16;;;;;;;;;27.75;24.25;;;;;5.94;66.42;102138.03;3679219;26;1928165;-62
2022/01/19 02:52:39;;;;;;;;;36.00;22.75;;;;;5.98;66.36;102120.47;4776697;28;46298;-63
2022/01/19 02:55:05;;;;;;;;;29.00;23.00;;;;;5.98;66.40;102114.44;4980231;28;45384;-63
2022/01/19 02:57:34;;;;;;;;;27.50;24.50;;;;;5.99;66.46;102110.91;4962365;28;45334;-61
2022/01/19 03:06:31;;;;;;;;;24.75;22.25;;;;;5.99;66.28;102110.91;4980099;28;45392;-63
2022/01/19 03:10:57;;;;;;;;;24.25;21.00;;;;;5.96;66.32;102096.22;4979977;28;45291;-64
2022/01/19 03:13:22;;;;;;;;;26.00;22.75;;;;;5.97;66.35;102102.28;4978996;28;65257;-61
2022/01/19 03:15:48;;;;;;;;;28.75;23.50;;;;;5.96;66.64;102085.78;4979602;28;45351;-63
2022/01/19 03:18:13;;;;;;;;;28.50;23.00;;;;;5.97;66.44;102087.47;4979758;28;45218;-61
2022/01/19 03:20:39;;;;;;;;;28.25;25.00;;;;;5.97;66.33;102084.88;4979305;28;58650;-63
2022/01/19 03:23:14;;;;;;;;;23.50;22.50;;;;;5.99;66.42;102090.03;4979658;28;45235;-62
2022/01/19 03:25:39;;;;;;;;;26.50;22.75;;;;;5.99;66.29;102088.25;4979665;28;45256;-62
2022/01/19 03:28:05;;;;;;;;;25.25;20.75;;;;;5.99;66.41;102090.88;4979676;28;45305;-62
2022/01/19 03:30:30;;;;;;;;;30.00;22.50;;;;;5.98;66.25;102086.56;4962317;28;45360;-62
2022/01/19 03:32:56;;;;;;;;;29.50;23.25;;;;;5.98;66.55;102094.38;4962063;28;45276;-62
2022/01/19 03:35:21;;;;;;;;;25.00;24.00;;;;;5.97;66.75;102099.69;4979254;28;45849;-61
2022/01/19 03:37:47;;;;;;;;;28.75;25.25;;;;;5.98;66.63;102098.78;4978456;28;61592;-61
2022/01/19 03:40:12;;;;;;;;;24.75;23.75;;;;;5.99;66.62;102095.25;4978861;28;55682;-63
2022/01/19 03:42:38;;;;;;;;;26.50;23.25;;;;;5.99;66.57;102088.25;4979377;28;45523;-62
2022/01/19 03:45:06;;;;;;;;;23.75;23.75;;;;;5.98;66.62;102088.34;4978734;28;60027;-64
2022/01/19 03:47:38;;;;;;;;;32.50;28.25;;;;;5.98;66.56;102080.50;4978912;28;45852;-63
2022/01/19 03:50:04;;;;;;;;;58.50;46.75;;;;;5.99;66.46;102079.59;4962846;28;45405;-63
2022/01/19 03:52:30;;;;;;;;;26.00;22.50;;;;;5.97;66.56;102069.22;4961440;28;45263;-63
2022/01/19 03:54:55;;;;;;;;;35.25;30.75;;;;;5.96;66.64;102069.28;4978975;28;45269;-64
2022/01/19 03:57:21;;;;;;;;;63.00;45.75;;;;;5.94;66.71;102066.72;4977969;28;73035;-61
2022/01/19 03:59:47;;;;;;;;;40.00;30.75;;;;;5.92;66.67;102069.41;4962032;28;45324;-62
2022/01/19 04:02:12;;;;;;;;;37.00;25.25;;;;;5.91;66.72;102065.13;4961553;28;45457;-61
2022/01/19 04:04:43;;;;;;;;;32.25;29.50;;;;;5.92;66.73;102064.22;4961376;28;46479;-63
2022/01/19 04:07:09;;;;;;;;;39.00;30.25;;;;;5.91;66.73;102059.91;4978661;28;45915;-65
2022/01/19 04:09:40;;;;;;;;;27.00;24.00;;;;;5.92;66.74;102056.38;4961963;28;45359;-63
2022/01/19 04:12:07;;;;;;;;;29.25;23.25;;;;;5.93;66.84;102055.47;4961282;28;45363;-62
2022/01/19 04:14:33;;;;;;;;;32.50;23.75;;;;;5.93;66.87;102052.84;4978661;28;45803;-62
2022/01/19 04:16:59;;;;;;;;;29.50;22.50;;;;;5.92;66.76;102045.94;4961549;28;45410;-61
2022/01/19 04:19:30;;;;;;;;;23.75;23.75;;;;;5.94;66.77;102051.06;4961430;28;45349;-64
2022/01/19 04:21:57;;;;;;;;;27.75;24.00;;;;;5.93;67.00;102045.03;4947124;28;45333;-62
2022/01/19 04:24:23;;;;;;;;;30.00;22.25;;;;;5.92;66.93;102042.47;4978545;28;46569;-62
2022/01/19 04:29:32;;;;;;;;;23.50;19.50;;;;;5.94;66.91;102049.34;4979053;28;45282;-65
2022/01/19 04:31:58;;;;;;;;;23.75;19.75;;;;;5.95;66.91;102044.94;4978334;28;56492;-64
2022/01/19 04:34:23;;;;;;;;;22.25;19.75;;;;;5.92;67.23;102040.72;4978319;28;47925;-63
2022/01/19 04:44:52;;;;;;;;;31.00;27.00;;;;;5.93;66.88;102049.38;4963566;28;45269;-61
2022/01/19 05:04:08;;;;;;;;;27.25;24.75;;;;;5.88;66.64;102054.81;4937920;28;45404;-63
2022/01/19 05:06:20;;;;;;;;;28.00;23.00;;;;;5.87;66.72;102053.13;4973854;28;45380;-63
2022/01/19 05:13:57;;;;;;;;;23.00;22.75;;;;;5.84;66.97;102049.78;4978399;28;45307;-62
2022/01/19 05:16:23;;;;;;;;;29.25;24.00;;;;;5.83;66.90;102046.34;4977654;28;46641;-65
2022/01/19 05:18:48;;;;;;;;;25.25;23.00;;;;;5.84;66.68;102052.41;4977853;28;45329;-63
2022/01/19 05:21:14;;;;;;;;;37.00;28.75;;;;;5.82;67.12;102044.66;4977820;28;46094;-62
2022/01/19 05:23:39;;;;;;;;;31.25;24.25;;;;;5.81;67.02;102044.72;4977900;28;45569;-61
2022/01/19 05:26:05;;;;;;;;;34.00;28.00;;;;;5.79;67.37;102040.44;4976680;28;74564;-63
2022/01/19 05:28:30;;;;;;;;;28.00;23.00;;;;;5.79;66.90;102040.44;4976847;28;69186;-64
2022/01/19 05:30:55;;;;;;;;;27.25;22.25;;;;;5.80;67.24;102041.25;4977820;28;45231;-63
2022/01/19 05:33:21;;;;;;;;;30.75;22.50;;;;;5.78;67.00;102025.69;4976953;28;63316;-62
2022/01/19 05:35:46;;;;;;;;;24.00;22.00;;;;;5.79;67.21;102021.31;4960458;28;45275;-62
2022/01/19 05:38:12;;;;;;;;;26.50;23.50;;;;;5.79;67.20;102027.38;4976526;28;70032;-64
2022/01/19 05:40:37;;;;;;;;;26.75;25.00;;;;;5.78;67.50;102030.06;4959463;28;57129;-62
2022/01/19 05:43:03;;;;;;;;;25.75;23.25;;;;;5.78;67.43;102027.44;4977567;28;45277;-63
2022/01/19 05:45:28;;;;;;;;;32.50;23.50;;;;;5.79;67.53;102036.97;4977625;28;46329;-62
2022/01/19 05:47:54;;;;;;;;;36.25;28.00;;;;;5.77;67.30;102037.03;4977475;28;45255;-64
2022/01/19 05:50:19;;;;;;;;;34.00;24.50;;;;;5.76;67.32;102039.69;4977451;28;45223;-62
2022/01/19 05:52:45;;;;;;;;;30.25;24.50;;;;;5.76;67.32;102040.56;4977090;28;45437;-63
2022/01/19 05:55:10;;;;;;;;;29.75;25.25;;;;;5.75;67.29;102035.41;4976351;28;71308;-62
2022/01/19 05:57:35;;;;;;;;;30.25;25.00;;;;;5.74;67.59;102038.91;4976505;28;65897;-62
2022/01/19 06:00:01;;;;;;;;;26.75;25.50;;;;;5.73;67.62;102043.31;4977607;28;45323;-65
2022/01/19 06:02:26;;;;;;;;;37.75;27.75;;;;;5.73;67.48;102038.09;4977321;28;45298;-63
2022/01/19 06:04:52;;;;;;;;;27.00;26.25;;;;;5.74;67.48;102039.78;4976400;28;69742;-63
2022/01/19 06:07:17;;;;;;;;;29.25;29.25;;;;;5.71;67.46;102034.69;4976874;28;45340;-62
2022/01/19 06:12:10;;;;;;;;;31.75;24.25;;;;;5.70;67.72;102026.94;4977131;28;45509;-65
2022/01/19 06:14:36;;;;;;;;;30.50;24.75;;;;;5.70;67.72;102037.34;4959449;28;46717;-62
2022/01/19 06:17:02;;;;;;;;;33.00;28.00;;;;;5.69;67.92;102036.53;4976767;28;45250;-61
2022/01/19 06:19:28;;;;;;;;;34.00;25.75;;;;;5.71;67.93;102031.22;4976171;28;45244;-64
2022/01/19 06:21:53;;;;;;;;;31.75;25.50;;;;;5.69;68.04;102031.31;4976992;28;45215;-63
2022/01/19 06:24:19;;;;;;;;;24.25;21.75;;;;;5.69;67.72;102030.44;4959594;28;46072;-63
2022/01/19 06:26:44;;;;;;;;;28.25;26.00;;;;;5.70;67.86;102033.00;4958433;28;69305;-61
2022/01/19 06:29:09;;;;;;;;;32.50;29.50;;;;;5.70;67.71;102022.56;4959442;28;45352;-62
2022/01/19 06:31:35;;;;;;;;;28.25;26.00;;;;;5.69;67.55;102023.50;4958726;28;59489;-63
2022/01/19 06:34:00;;;;;;;;;35.00;27.50;;;;;5.68;67.78;102024.41;4975904;28;67560;-62
2022/01/19 06:36:26;;;;;;;;;31.25;28.00;;;;;5.69;67.72;102020.88;4975884;28;65729;-61
2022/01/19 06:38:51;;;;;;;;;35.50;29.50;;;;;5.70;67.71;102022.56;4977075;28;45417;-62
2022/01/19 06:41:17;;;;;;;;;28.00;26.00;;;;;5.69;67.57;102025.22;4976957;28;45566;-61
2022/01/19 06:43:42;;;;;;;;;35.25;29.25;;;;;5.67;67.88;102027.91;4941976;28;67591;-62
2022/01/19 06:46:07;;;;;;;;;35.00;29.75;;;;;5.67;67.82;102027.91;4975762;28;65602;-62
2022/01/19 06:48:33;;;;;;;;;39.50;27.50;;;;;5.66;67.62;102026.22;4975643;28;61923;-62
2022/01/19 06:50:58;;;;;;;;;29.75;25.50;;;;;5.66;67.78;102018.41;4975881;28;51766;-64
2022/01/19 06:53:23;;;;;;;;;30.00;25.25;;;;;5.63;68.11;102016.75;4975686;28;69136;-63
2022/01/19 06:55:49;;;;;;;;;32.75;26.75;;;;;5.64;67.94;102015.03;4975745;28;64799;-63
2022/01/19 06:58:14;;;;;;;;;29.50;26.00;;;;;5.60;67.76;102014.28;4975455;28;65245;-62
2022/01/19 07:00:40;;;;;;;;;31.75;28.00;;;;;5.59;67.93;102014.38;4976321;28;45616;-63
2022/01/19 07:03:05;;;;;;;;;31.50;29.50;;;;;5.57;68.15;102003.16;4975426;28;68225;-62
2022/01/19 07:05:30;;;;;;;;;31.50;29.50;;;;;5.57;68.39;102016.19;4958843;28;45349;-63
2022/01/19 07:07:57;;;;;;;;;35.50;32.00;;;;;5.57;68.18;102016.19;4975876;28;55465;-63
2022/01/19 07:10:23;;;;;;;;;34.25;30.00;;;;;5.56;68.37;102017.09;4976332;28;45212;-62
2022/01/19 07:12:48;;;;;;;;;38.75;30.75;;;;;5.57;68.19;102022.25;4976085;28;45553;-61
2022/01/19 07:15:13;;;;;;;;;29.00;27.50;;;;;5.56;68.12;102009.28;4958783;28;45280;-63
2022/01/19 07:17:39;;;;;;;;;33.50;26.50;;;;;5.56;68.05;102015.38;4975393;28;65735;-64
2022/01/19 07:20:05;;;;;;;;;33.75;29.00;;;;;5.54;68.40;102019.78;4975990;28;45175;-62
2022/01/19 07:22:30;;;;;;;;;38.50;26.00;;;;;5.54;68.42;102027.63;4978238;28;45555;-63
2022/01/19 07:24:58;;;;;;;;;34.00;30.25;;;;;5.50;68.52;102029.50;4978499;28;73485;-61
2022/01/19 07:27:23;;;;;;;;;33.25;28.50;;;;;5.51;68.51;102027.75;4979660;28;45333;-64
2022/01/19 07:29:49;;;;;;;;;37.50;32.75;;;;;5.50;68.38;102026.88;4979685;28;45243;-62
2022/01/19 07:32:14;;;;;;;;;33.00;28.25;;;;;5.50;68.81;102026.88;4961878;28;47292;-61
2022/01/19 07:34:40;;;;;;;;;35.00;30.00;;;;;5.52;68.67;102031.19;4979279;28;45358;-62
2022/01/19 07:37:05;;;;;;;;;33.75;29.00;;;;;5.50;68.62;102024.28;4978931;28;45340;-63
2022/01/19 07:39:30;;;;;;;;;48.25;39.75;;;;;5.52;68.77;102031.19;4961196;28;53266;-63
2022/01/19 07:41:56;;;;;;;;;48.25;37.50;;;;;5.54;68.87;102031.97;4977837;28;74674;-63
2022/01/19 07:44:22;;;;;;;;;45.00;35.25;;;;;5.56;68.78;102035.34;4978910;28;45204;-62
2022/01/19 07:46:48;;;;;;;;;36.50;30.75;;;;;5.56;68.68;102030.16;4979118;28;45220;-65
2022/01/19 07:49:14;;;;;;;;;36.25;28.75;;;;;5.57;68.73;102031.84;4979137;28;45493;-60
2022/01/19 07:51:39;;;;;;;;;45.50;36.75;;;;;5.58;68.71;102028.31;4960975;28;48645;-62
2022/01/19 07:54:05;;;;;;;;;37.50;35.00;;;;;5.60;68.85;102036.94;4961403;28;45247;-62
2022/01/19 07:56:30;;;;;;;;;40.00;34.25;;;;;5.61;68.84;102038.63;4978744;28;45340;-62
2022/01/19 07:58:55;;;;;;;;;43.25;35.75;;;;;5.61;68.96;102038.63;4960101;28;70628;-62
2022/01/19 08:01:21;;;;;;;;;51.75;37.25;;;;;5.62;68.60;102037.72;4960603;28;54126;-66
2022/01/19 08:03:46;;;;;;;;;34.50;33.25;;;;;5.61;68.88;102043.84;4961017;28;45413;-63
2022/01/19 08:06:11;;;;;;;;;43.50;31.75;;;;;5.61;68.79;102031.63;4960519;28;67726;-65
2022/01/19 08:08:37;;;;;;;;;41.25;35.00;;;;;5.62;69.11;102035.09;4960517;28;68254;-64
2022/01/19 08:11:03;;;;;;;;;46.75;37.75;;;;;5.65;69.21;102045.41;4978326;28;50791;-61
2022/01/19 08:13:28;;;;;;;;;44.75;34.75;;;;;5.65;69.04;102038.41;4961291;28;45700;-65
2022/01/19 08:15:53;;;;;;;;;50.00;38.00;;;;;5.68;69.16;102029.63;4977848;28;66703;-63
2022/01/19 08:18:19;;;;;;;;;53.00;40.50;;;;;5.69;68.94;102031.31;4977518;28;66206;-65
2022/01/19 08:20:44;;;;;;;;;50.50;36.75;;;;;5.71;68.88;102034.69;4960341;28;45527;-61
2022/01/19 08:23:10;;;;;;;;;52.00;38.75;;;;;5.73;68.81;102032.00;4960060;28;68567;-63
2022/01/19 08:25:35;;;;;;;;;55.00;41.00;;;;;5.72;68.92;102044.22;4978774;28;45225;-62
2022/01/19 08:28:01;;;;;;;;;51.50;39.00;;;;;5.73;68.62;102043.31;4961064;28;45516;-63
2022/01/19 08:30:26;;;;;;;;;46.50;35.00;;;;;5.74;68.87;102047.59;4959918;28;72548;-62
2022/01/19 08:32:52;;;;;;;;;51.25;39.00;;;;;5.74;68.50;102045.00;4976960;28;45195;-62
2022/01/19 08:35:17;;;;;;;;;46.25;37.00;;;;;5.75;68.69;102046.69;4977445;28;68168;-62
2022/01/19 08:37:42;;;;;;;;;58.50;40.00;;;;;5.76;68.58;102043.19;4977538;28;57547;-64
2022/01/19 08:40:08;;;;;;;;;52.25;40.50;;;;;5.75;68.68;102051.91;4978025;28;46104;-63
2022/01/19 08:42:36;;;;;;;;;49.75;42.25;;;;;5.75;68.88;102053.66;4977841;28;45176;-63
2022/01/19 08:45:07;;;;;;;;;47.50;39.00;;;;;5.75;68.85;102051.91;4969689;28;45709;-63
2022/01/19 08:47:33;;;;;;;;;53.50;42.50;;;;;5.77;68.59;102057.91;4980941;28;45304;-62
2022/01/19 08:49:58;;;;;;;;;53.25;42.50;;;;;5.79;68.87;102056.09;4997540;28;45401;-62
2022/01/19 08:52:23;;;;;;;;;59.25;46.50;;;;;5.81;68.85;102060.38;4997413;28;45274;-63
2022/01/19 08:54:49;;;;;;;;;60.00;47.00;;;;;5.82;68.69;102060.31;4979932;28;45263;-63
2022/01/19 08:57:15;;;;;;;;;56.00;42.00;;;;;5.85;68.62;102074.97;4997497;28;45302;-64
2022/01/19 08:59:40;;;;;;;;;55.25;42.75;;;;;5.86;68.62;102074.03;4997440;28;46438;-64
2022/01/19 09:02:06;;;;;;;;;59.75;42.50;;;;;5.87;68.59;102070.53;4978946;28;72163;-63
2022/01/19 09:04:31;;;;;;;;;54.50;44.50;;;;;5.92;68.74;102073.78;4980330;28;45373;-63
2022/01/19 09:06:58;;;;;;;;;55.00;42.00;;;;;5.92;68.65;102079.84;4997343;28;45558;-62
2022/01/19 09:09:24;;;;;;;;;59.25;43.25;;;;;5.93;68.69;102071.13;4996992;28;45885;-63
2022/01/19 09:11:49;;;;;;;;;59.00;46.50;;;;;5.94;68.76;102077.16;4996532;28;54219;-61
2022/01/19 09:14:15;;;;;;;;;57.75;45.75;;;;;5.94;68.95;102078.03;4997442;28;45311;-63
2022/01/19 09:16:40;;;;;;;;;57.25;44.50;;;;;5.97;69.01;102077.03;4997279;28;45472;-61
2022/01/19 09:19:07;;;;;;;;;58.00;45.25;;;;;5.98;68.90;102078.72;4979347;28;45284;-62
2022/01/19 09:21:32;;;;;;;;;56.00;44.00;;;;;5.99;69.12;102082.19;4997085;28;45813;-62
2022/01/19 09:23:58;;;;;;;;;56.25;43.50;;;;;6.00;69.17;102082.16;4979621;28;45335;-62
2022/01/19 09:26:23;;;;;;;;;60.50;47.25;;;;;6.02;68.97;102084.72;4997449;28;45468;-63
2022/01/19 09:28:48;;;;;;;;;60.75;47.00;;;;;6.03;69.17;102073.34;4978313;28;72300;-63
2022/01/19 09:31:16;;;;;;;;;57.75;45.25;;;;;6.03;69.22;102079.41;4996353;28;64462;-64
2022/01/19 09:33:43;;;;;;;;;57.75;43.25;;;;;6.05;69.35;102077.56;4980204;28;45354;-63
2022/01/19 09:36:29;;;;;;;;;61.50;45.25;;;;;6.07;69.41;102080.97;4997356;28;45268;-64
2022/01/19 09:38:54;;;;;;;;;52.75;40.75;;;;;6.10;69.39;102082.56;4981690;28;45362;-62
2022/01/19 09:41:20;;;;;;;;;46.50;37.50;;;;;6.11;69.62;102079.06;4996588;28;56440;-63
2022/01/19 09:43:45;;;;;;;;;49.50;37.00;;;;;6.12;69.71;102085.13;4996200;28;57093;-64
2022/01/19 09:46:10;;;;;;;;;44.00;34.75;;;;;6.14;69.72;102078.91;4979345;28;45508;-64
2022/01/19 09:48:36;;;;;;;;;46.25;38.00;;;;;6.18;69.94;102090.09;4961666;28;72257;-65
2022/01/19 09:51:01;;;;;;;;;43.75;37.25;;;;;6.22;70.04;102091.66;4978286;28;66077;-63
2022/01/19 09:53:28;;;;;;;;;58.25;42.00;;;;;6.25;69.82;102094.13;4996856;28;45228;-63
2022/01/19 09:55:53;;;;;;;;;52.00;42.50;;;;;6.33;69.94;102093.75;4979179;28;45327;-62
2022/01/19 09:58:21;;;;;;;;;51.75;41.50;;;;;6.35;69.84;102091.94;4962611;28;45992;-64
2022/01/19 10:00:47;;;;;;;;;56.75;42.25;;;;;6.38;69.83;102083.94;4996652;28;45854;-64
2022/01/19 10:03:23;;;;;;;;;42.50;35.00;;;;;6.42;69.75;102082.91;4995991;28;60107;-63
2022/01/19 10:05:58;;;;;;;;;46.75;37.25;;;;;6.46;69.81;102084.44;4996869;28;45250;-64
2022/01/19 10:08:31;;;;;;;;;59.00;44.50;;;;;6.51;69.68;102076.41;4996278;28;46145;-63
2022/01/19 10:11:10;;;;;;;;;50.00;38.00;;;;;6.52;69.67;102080.69;4978798;28;45360;-62
2022/01/19 10:16:59;;;;;;;;;50.00;39.25;;;;;6.59;69.54;102078.66;4981673;28;45383;-64
2022/01/19 10:19:24;;;;;;;;;53.50;40.75;;;;;6.61;69.38;102080.28;4983158;28;47485;-62
2022/01/19 10:22:06;;;;;;;;;50.00;36.00;;;;;6.65;69.18;102078.34;4995521;28;45477;-64
2022/01/19 10:24:47;;;;;;;;;40.50;31.75;;;;;6.67;69.11;102074.75;4995972;28;45380;-64
2022/01/19 10:27:37;;;;;;;;;54.50;40.75;;;;;6.71;69.11;102083.28;4996175;28;45424;-62
2022/01/19 10:30:03;;;;;;;;;56.50;42.00;;;;;6.74;68.69;102074.47;4995916;28;46435;-65
2022/01/19 10:32:31;;;;;;;;;49.00;37.75;;;;;6.75;68.95;102082.22;4996103;28;45269;-61
2022/01/19 10:34:57;;;;;;;;;48.00;37.75;;;;;6.77;68.79;102075.16;4978738;28;45310;-64
2022/01/19 10:37:24;;;;;;;;;46.00;38.25;;;;;6.78;68.80;102068.19;4995354;28;69317;-61
2022/01/19 10:39:50;;;;;;;;;50.00;38.00;;;;;6.81;68.99;102068.03;4978595;28;45540;-64
2022/01/19 10:42:16;;;;;;;;;50.25;37.50;;;;;6.83;68.84;102066.22;4962308;28;45351;-61
2022/01/19 10:44:43;;;;;;;;;43.25;35.00;;;;;6.86;68.96;102066.06;4996266;28;45357;-63
2022/01/19 10:47:10;;;;;;;;;32.00;28.50;;;;;6.89;69.06;102054.59;4978857;28;45370;-62
2022/01/19 10:49:52;;;;;;;;;41.00;29.75;;;;;6.92;69.22;102057.91;4977611;28;46486;-64
2022/01/19 10:52:30;;;;;;;;;37.75;33.75;;;;;6.93;69.27;102046.53;4995766;28;45795;-63
2022/01/19 10:54:57;;;;;;;;;55.25;36.75;;;;;6.96;68.96;102049.00;4996334;28;45219;-61
2022/01/19 10:57:22;;;;;;;;;45.25;37.00;;;;;6.97;68.88;102044.63;4998065;28;45222;-62
2022/01/19 10:59:50;;;;;;;;;41.75;33.25;;;;;6.98;68.68;102039.31;4981553;28;46376;-63
2022/01/19 11:02:15;;;;;;;;;45.25;34.50;;;;;7.01;68.26;102037.47;4999381;28;45958;-62
2022/01/19 11:04:42;;;;;;;;;35.25;32.00;;;;;7.02;68.43;102036.53;4981067;28;66325;-62
2022/01/19 11:07:12;;;;;;;;;50.00;34.75;;;;;7.02;68.27;102042.63;4999576;28;45587;-63
2022/01/19 11:09:46;;;;;;;;;47.25;35.00;;;;;7.05;67.99;102023.31;4981606;28;46235;-62
2022/01/19 11:12:15;;;;;;;;;45.25;36.00;;;;;7.09;68.00;102024.88;4982213;28;45780;-61
2022/01/19 11:14:40;;;;;;;;;37.75;35.75;;;;;7.10;67.90;102021.34;4982166;28;45515;-61
2022/01/19 11:17:06;;;;;;;;;42.50;34.75;;;;;7.12;67.92;102022.09;4998684;28;45379;-62
2022/01/19 11:19:36;;;;;;;;;43.50;36.25;;;;;7.15;67.91;102029.78;4998831;28;48634;-62
2022/01/19 11:22:34;;;;;;;;;44.50;35.75;;;;;7.19;67.75;102026.09;4963997;28;45804;-62
2022/01/19 11:25:24;;;;;;;;;53.25;37.00;;;;;7.23;67.71;102024.16;4929551;28;45490;-64
2022/01/19 11:27:49;;;;;;;;;51.00;37.25;;;;;7.25;67.24;102023.19;4998979;28;45423;-62
2022/01/19 11:30:18;;;;;;;;;41.25;34.00;;;;;7.27;67.53;102018.72;4964740;28;46540;-61
2022/01/19 11:32:43;;;;;;;;;53.50;36.75;;;;;7.31;67.62;102027.25;4998771;28;45235;-63
2022/01/19 11:35:23;;;;;;;;;51.50;40.50;;;;;7.34;67.43;102023.66;4998775;28;45239;-62
2022/01/19 11:37:49;;;;;;;;;49.00;37.50;;;;;7.35;67.17;102020.09;4966421;28;45582;-61
2022/01/19 11:40:16;;;;;;;;;46.50;36.75;;;;;7.37;67.25;102018.25;4998491;28;46441;-63
2022/01/19 11:42:41;;;;;;;;;50.75;39.75;;;;;7.40;67.06;102008.47;4981051;28;45226;-63
2022/01/19 11:45:08;;;;;;;;;53.25;43.00;;;;;7.42;67.02;102005.75;4998776;28;45366;-62
2022/01/19 11:47:33;;;;;;;;;48.25;37.00;;;;;7.45;67.09;102004.78;4998971;28;45555;-62
2022/01/19 11:50:10;;;;;;;;;46.75;36.50;;;;;7.46;66.75;101993.41;4998277;28;45274;-62
2022/01/19 11:52:38;;;;;;;;;53.50;39.50;;;;;7.48;66.65;101997.59;4998143;28;45383;-63
2022/01/19 11:55:14;;;;;;;;;55.75;38.25;;;;;7.48;66.43;102000.22;4998919;28;45297;-62
2022/01/19 11:57:40;;;;;;;;;55.50;42.00;;;;;7.50;66.48;101990.53;4998626;28;45506;-61
2022/01/19 12:00:09;;;;;;;;;51.00;41.25;;;;;7.50;66.40;101984.47;4979819;28;45539;-63
2022/01/19 12:02:39;;;;;;;;;53.75;40.50;;;;;7.51;66.32;101979.13;4998251;28;45231;-65
2022/01/19 12:05:10;;;;;;;;;58.50;43.75;;;;;7.53;66.35;101982.53;4998427;28;45306;-62
2022/01/19 12:07:40;;;;;;;;;54.00;42.25;;;;;7.53;66.28;101977.28;4998217;28;45619;-62
2022/01/19 12:10:11;;;;;;;;;55.25;39.25;;;;;7.54;66.27;101978.97;4998207;28;46187;-62
2022/01/19 12:12:54;;;;;;;;;58.00;44.00;;;;;7.55;66.20;101983.28;4981343;28;45904;-64
2022/01/19 12:15:57;;;;;;;;;54.75;43.25;;;;;7.57;66.13;101976.22;4998427;28;45240;-63
2022/01/19 12:18:41;;;;;;;;;56.00;42.75;;;;;7.60;66.11;101980.44;4998629;28;45273;-63
2022/01/19 12:21:09;;;;;;;;;55.75;45.00;;;;;7.60;66.28;101976.97;4997965;28;45291;-63
2022/01/19 12:23:35;;;;;;;;;61.00;46.25;;;;;7.64;66.11;101978.50;4997739;28;45808;-63
2022/01/19 12:26:01;;;;;;;;;60.75;45.00;;;;;7.65;66.07;101975.81;4997819;28;45427;-64
2022/01/19 12:28:44;;;;;;;;;58.75;46.00;;;;;7.66;66.19;101976.66;4998210;28;45353;-61
2022/01/19 12:31:25;;;;;;;;;63.25;48.50;;;;;7.66;66.09;101972.28;4991519;28;46458;-63
2022/01/19 12:34:02;;;;;;;;;61.25;45.50;;;;;7.67;66.01;101965.25;4958458;28;45844;-61
2022/01/19 12:36:54;;;;;;;;;56.00;45.75;;;;;7.67;66.04;101965.25;4958848;28;45290;-63
2022/01/19 12:39:25;;;;;;;;;49.00;40.50;;;;;7.69;66.08;101960.78;4950754;28;45615;-63
2022/01/19 12:42:00;;;;;;;;;61.75;47.50;;;;;7.72;65.93;101960.63;4958384;28;46164;-64
2022/01/19 12:44:34;;;;;;;;;64.25;47.25;;;;;7.71;66.29;101956.31;4958269;28;45445;-63
2022/01/19 12:47:00;;;;;;;;;56.25;46.75;;;;;7.71;66.40;101958.94;4958522;28;45304;-61
2022/01/19 12:49:27;;;;;;;;;60.00;45.00;;;;;7.74;66.32;101958.78;4958488;28;45546;-62